sensor_id;sensor_type;location;lat;lon;timestamp;P1;durP1;ratioP1;P2;durP2;ratioP2
3845;SDS011;1938;50.812;7.738;2023-09-18T00:00:23;11.83;;;4.73;;
3845;SDS011;1938;50.812;7.738;2023-09-18T00:02:48;15.60;;;6.50;;
3845;SDS011;1938;50.812;7.738;2023-09-18T00:05:14;11.70;;;4.50;;
3845;SDS011;1938;50.812;7.738;2023-09-18T00:07:41;16.60;;;5.80;;
3845;SDS011;1938;50.812;7.738;2023-09-18T00:10:08;13.80;;;6.53;;
3845;SDS011;1938;50.812;7.738;2023-09-18T00:12:34;8.17;;;4.77;;
3845;SDS011;1938;50.812;7.738;2023-09-18T00:15:00;12.13;;;5.70;;
3845;SDS011;1938;50.812;7.738;2023-09-18T00:17:26;11.40;;;5.77;;
3845;SDS011;1938;50.812;7.738;2023-09-18T00:19:51;16.23;;;5.83;;
3845;SDS011;1938;50.812;7.738;2023-09-18T00:22:18;14.90;;;5.93;;
3845;SDS011;1938;50.812;7.738;2023-09-18T00:24:45;11.03;;;5.23;;
3845;SDS011;1938;50.812;7.738;2023-09-18T00:27:10;16.93;;;6.13;;
3845;SDS011;1938;50.812;7.738;2023-09-18T00:29:38;12.67;;;5.33;;
3845;SDS011;1938;50.812;7.738;2023-09-18T00:32:05;13.93;;;4.70;;
3845;SDS011;1938;50.812;7.738;2023-09-18T00:34:31;9.97;;;5.83;;
3845;SDS011;1938;50.812;7.738;2023-09-18T00:36:57;13.80;;;5.53;;
3845;SDS011;1938;50.812;7.738;2023-09-18T00:39:24;12.27;;;5.47;;
3845;SDS011;1938;50.812;7.738;2023-09-18T00:41:50;11.27;;;5.10;;
3845;SDS011;1938;50.812;7.738;2023-09-18T00:44:19;9.20;;;5.43;;
3845;SDS011;1938;50.812;7.738;2023-09-18T00:46:48;15.10;;;5.50;;
3845;SDS011;1938;50.812;7.738;2023-09-18T00:49:15;12.40;;;6.23;;
3845;SDS011;1938;50.812;7.738;2023-09-18T00:51:41;13.50;;;6.37;;
3845;SDS011;1938;50.812;7.738;2023-09-18T00:54:07;9.90;;;4.90;;
3845;SDS011;1938;50.812;7.738;2023-09-18T00:56:33;16.33;;;4.87;;
3845;SDS011;1938;50.812;7.738;2023-09-18T00:58:59;12.10;;;5.33;;
3845;SDS011;1938;50.812;7.738;2023-09-18T01:01:29;14.57;;;5.80;;
3845;SDS011;1938;50.812;7.738;2023-09-18T01:03:56;18.00;;;5.63;;
3845;SDS011;1938;50.812;7.738;2023-09-18T01:06:24;14.90;;;5.03;;
3845;SDS011;1938;50.812;7.738;2023-09-18T01:08:52;11.77;;;5.07;;
3845;SDS011;1938;50.812;7.738;2023-09-18T01:11:22;14.30;;;4.87;;
3845;SDS011;1938;50.812;7.738;2023-09-18T01:16:50;8.43;;;4.57;;
3845;SDS011;1938;50.812;7.738;2023-09-18T01:19:37;9.93;;;4.10;;
3845;SDS011;1938;50.812;7.738;2023-09-18T01:22:04;11.47;;;4.70;;
3845;SDS011;1938;50.812;7.738;2023-09-18T01:24:34;8.87;;;4.87;;
3845;SDS011;1938;50.812;7.738;2023-09-18T01:27:00;10.70;;;4.20;;
3845;SDS011;1938;50.812;7.738;2023-09-18T01:29:28;12.07;;;4.77;;
3845;SDS011;1938;50.812;7.738;2023-09-18T01:31:53;10.37;;;5.63;;
3845;SDS011;1938;50.812;7.738;2023-09-18T01:34:20;10.97;;;4.90;;
3845;SDS011;1938;50.812;7.738;2023-09-18T01:36:50;8.90;;;4.30;;
3845;SDS011;1938;50.812;7.738;2023-09-18T01:39:16;30.83;;;4.53;;
3845;SDS011;1938;50.812;7.738;2023-09-18T01:41:44;11.67;;;5.27;;
3845;SDS011;1938;50.812;7.738;2023-09-18T01:44:10;11.50;;;5.37;;
3845;SDS011;1938;50.812;7.738;2023-09-18T01:46:36;10.10;;;3.60;;
3845;SDS011;1938;50.812;7.738;2023-09-18T01:49:02;12.37;;;4.40;;
3845;SDS011;1938;50.812;7.738;2023-09-18T01:51:28;12.30;;;5.03;;
3845;SDS011;1938;50.812;7.738;2023-09-18T01:53:57;9.33;;;4.00;;
3845;SDS011;1938;50.812;7.738;2023-09-18T01:56:23;7.13;;;4.00;;
3845;SDS011;1938;50.812;7.738;2023-09-18T01:58:49;12.00;;;4.10;;
3845;SDS011;1938;50.812;7.738;2023-09-18T02:01:14;9.17;;;4.47;;
3845;SDS011;1938;50.812;7.738;2023-09-18T02:03:40;10.13;;;3.80;;
3845;SDS011;1938;50.812;7.738;2023-09-18T02:06:06;18.30;;;4.37;;
3845;SDS011;1938;50.812;7.738;2023-09-18T02:08:32;10.33;;;4.30;;
3845;SDS011;1938;50.812;7.738;2023-09-18T02:10:58;12.80;;;4.30;;
3845;SDS011;1938;50.812;7.738;2023-09-18T02:13:23;9.33;;;3.00;;
3845;SDS011;1938;50.812;7.738;2023-09-18T02:15:49;9.03;;;4.27;;
3845;SDS011;1938;50.812;7.738;2023-09-18T02:18:15;9.67;;;3.50;;
3845;SDS011;1938;50.812;7.738;2023-09-18T02:20:41;11.53;;;3.73;;
3845;SDS011;1938;50.812;7.738;2023-09-18T02:23:07;7.23;;;4.00;;
3845;SDS011;1938;50.812;7.738;2023-09-18T02:25:32;9.53;;;4.10;;
3845;SDS011;1938;50.812;7.738;2023-09-18T02:27:58;14.13;;;3.40;;
3845;SDS011;1938;50.812;7.738;2023-09-18T02:30:23;14.30;;;3.90;;
3845;SDS011;1938;50.812;7.738;2023-09-18T02:32:49;13.27;;;3.60;;
3845;SDS011;1938;50.812;7.738;2023-09-18T02:35:16;8.47;;;3.87;;
3845;SDS011;1938;50.812;7.738;2023-09-18T02:37:41;9.93;;;4.77;;
3845;SDS011;1938;50.812;7.738;2023-09-18T02:40:07;16.10;;;3.80;;
3845;SDS011;1938;50.812;7.738;2023-09-18T02:42:36;9.80;;;3.60;;
3845;SDS011;1938;50.812;7.738;2023-09-18T02:45:11;18.03;;;4.27;;
3845;SDS011;1938;50.812;7.738;2023-09-18T02:47:37;18.30;;;4.30;;
3845;SDS011;1938;50.812;7.738;2023-09-18T02:50:07;20.00;;;5.10;;
3845;SDS011;1938;50.812;7.738;2023-09-18T02:52:33;27.17;;;4.37;;
3845;SDS011;1938;50.812;7.738;2023-09-18T02:54:58;14.03;;;4.73;;
3845;SDS011;1938;50.812;7.738;2023-09-18T02:57:24;22.50;;;5.83;;
3845;SDS011;1938;50.812;7.738;2023-09-18T02:59:50;9.93;;;3.47;;
3845;SDS011;1938;50.812;7.738;2023-09-18T03:02:15;15.40;;;4.23;;
3845;SDS011;1938;50.812;7.738;2023-09-18T03:04:41;16.67;;;4.50;;
3845;SDS011;1938;50.812;7.738;2023-09-18T03:07:06;19.03;;;4.70;;
3845;SDS011;1938;50.812;7.738;2023-09-18T03:09:32;11.93;;;4.50;;
3845;SDS011;1938;50.812;7.738;2023-09-18T03:11:58;17.13;;;4.60;;
3845;SDS011;1938;50.812;7.738;2023-09-18T03:14:23;20.47;;;4.33;;
3845;SDS011;1938;50.812;7.738;2023-09-18T03:16:49;15.77;;;4.37;;
3845;SDS011;1938;50.812;7.738;2023-09-18T03:19:15;12.23;;;3.90;;
3845;SDS011;1938;50.812;7.738;2023-09-18T03:21:42;13.90;;;4.50;;
3845;SDS011;1938;50.812;7.738;2023-09-18T03:24:07;14.60;;;4.33;;
3845;SDS011;1938;50.812;7.738;2023-09-18T03:26:33;18.90;;;3.97;;
3845;SDS011;1938;50.812;7.738;2023-09-18T03:28:59;18.40;;;3.83;;
3845;SDS011;1938;50.812;7.738;2023-09-18T03:31:25;24.53;;;3.97;;
3845;SDS011;1938;50.812;7.738;2023-09-18T03:33:51;13.90;;;4.50;;
3845;SDS011;1938;50.812;7.738;2023-09-18T03:36:17;18.10;;;4.30;;
3845;SDS011;1938;50.812;7.738;2023-09-18T03:38:45;18.90;;;3.87;;
3845;SDS011;1938;50.812;7.738;2023-09-18T03:41:11;13.70;;;4.50;;
3845;SDS011;1938;50.812;7.738;2023-09-18T03:43:37;14.80;;;5.17;;
3845;SDS011;1938;50.812;7.738;2023-09-18T03:46:03;8.10;;;3.60;;
3845;SDS011;1938;50.812;7.738;2023-09-18T03:48:31;12.83;;;3.80;;
3845;SDS011;1938;50.812;7.738;2023-09-18T03:51:02;8.67;;;3.90;;
3845;SDS011;1938;50.812;7.738;2023-09-18T03:53:35;10.40;;;4.07;;
3845;SDS011;1938;50.812;7.738;2023-09-18T03:56:00;22.07;;;5.33;;
3845;SDS011;1938;50.812;7.738;2023-09-18T03:58:26;16.63;;;4.37;;
3845;SDS011;1938;50.812;7.738;2023-09-18T04:00:52;9.90;;;3.90;;
3845;SDS011;1938;50.812;7.738;2023-09-18T04:03:18;14.37;;;3.80;;
3845;SDS011;1938;50.812;7.738;2023-09-18T04:05:44;16.30;;;4.33;;
3845;SDS011;1938;50.812;7.738;2023-09-18T04:08:09;12.87;;;3.60;;
3845;SDS011;1938;50.812;7.738;2023-09-18T04:10:36;13.80;;;4.33;;
3845;SDS011;1938;50.812;7.738;2023-09-18T04:13:01;15.33;;;4.97;;
3845;SDS011;1938;50.812;7.738;2023-09-18T04:15:27;9.90;;;3.87;;
3845;SDS011;1938;50.812;7.738;2023-09-18T04:17:55;11.10;;;4.33;;
3845;SDS011;1938;50.812;7.738;2023-09-18T04:20:21;19.53;;;4.83;;
3845;SDS011;1938;50.812;7.738;2023-09-18T04:23:16;11.77;;;4.07;;
3845;SDS011;1938;50.812;7.738;2023-09-18T04:25:46;21.30;;;4.90;;
3845;SDS011;1938;50.812;7.738;2023-09-18T04:28:13;17.93;;;4.50;;
3845;SDS011;1938;50.812;7.738;2023-09-18T04:30:39;14.53;;;4.30;;
3845;SDS011;1938;50.812;7.738;2023-09-18T04:33:05;22.37;;;5.20;;
3845;SDS011;1938;50.812;7.738;2023-09-18T04:35:31;15.87;;;4.20;;
3845;SDS011;1938;50.812;7.738;2023-09-18T04:37:58;15.07;;;5.57;;
3845;SDS011;1938;50.812;7.738;2023-09-18T04:40:24;13.47;;;4.13;;
3845;SDS011;1938;50.812;7.738;2023-09-18T04:42:50;22.17;;;4.00;;
3845;SDS011;1938;50.812;7.738;2023-09-18T04:45:15;10.43;;;4.00;;
3845;SDS011;1938;50.812;7.738;2023-09-18T04:47:41;11.80;;;4.30;;
3845;SDS011;1938;50.812;7.738;2023-09-18T04:50:07;12.60;;;3.80;;
3845;SDS011;1938;50.812;7.738;2023-09-18T04:52:34;22.70;;;4.60;;
3845;SDS011;1938;50.812;7.738;2023-09-18T04:55:00;14.20;;;4.43;;
3845;SDS011;1938;50.812;7.738;2023-09-18T04:57:26;10.93;;;3.77;;
3845;SDS011;1938;50.812;7.738;2023-09-18T04:59:51;7.90;;;4.13;;
3845;SDS011;1938;50.812;7.738;2023-09-18T05:02:17;9.13;;;3.33;;
3845;SDS011;1938;50.812;7.738;2023-09-18T05:04:43;9.10;;;3.23;;
3845;SDS011;1938;50.812;7.738;2023-09-18T05:07:08;12.03;;;3.93;;
3845;SDS011;1938;50.812;7.738;2023-09-18T05:09:34;16.87;;;3.97;;
3845;SDS011;1938;50.812;7.738;2023-09-18T05:12:00;10.23;;;3.47;;
3845;SDS011;1938;50.812;7.738;2023-09-18T05:14:28;10.57;;;3.93;;
3845;SDS011;1938;50.812;7.738;2023-09-18T05:16:54;11.97;;;3.83;;
3845;SDS011;1938;50.812;7.738;2023-09-18T05:19:19;13.30;;;3.77;;
3845;SDS011;1938;50.812;7.738;2023-09-18T05:21:45;14.70;;;4.60;;
3845;SDS011;1938;50.812;7.738;2023-09-18T05:24:11;14.83;;;3.77;;
3845;SDS011;1938;50.812;7.738;2023-09-18T05:26:37;15.47;;;3.40;;
3845;SDS011;1938;50.812;7.738;2023-09-18T05:29:02;9.73;;;3.93;;
3845;SDS011;1938;50.812;7.738;2023-09-18T05:31:28;13.20;;;4.03;;
3845;SDS011;1938;50.812;7.738;2023-09-18T05:33:53;7.20;;;3.93;;
3845;SDS011;1938;50.812;7.738;2023-09-18T05:36:20;19.70;;;4.43;;
3845;SDS011;1938;50.812;7.738;2023-09-18T05:38:45;9.83;;;3.27;;
3845;SDS011;1938;50.812;7.738;2023-09-18T05:41:11;9.47;;;3.90;;
3845;SDS011;1938;50.812;7.738;2023-09-18T05:43:36;11.20;;;3.70;;
3845;SDS011;1938;50.812;7.738;2023-09-18T05:46:02;10.33;;;3.90;;
3845;SDS011;1938;50.812;7.738;2023-09-18T05:48:27;16.20;;;3.50;;
3845;SDS011;1938;50.812;7.738;2023-09-18T05:50:53;11.17;;;3.57;;
3845;SDS011;1938;50.812;7.738;2023-09-18T05:53:19;14.77;;;3.60;;
3845;SDS011;1938;50.812;7.738;2023-09-18T05:55:46;10.73;;;3.20;;
3845;SDS011;1938;50.812;7.738;2023-09-18T05:58:12;11.43;;;3.87;;
3845;SDS011;1938;50.812;7.738;2023-09-18T06:00:39;9.83;;;2.93;;
3845;SDS011;1938;50.812;7.738;2023-09-18T06:03:04;13.30;;;3.43;;
3845;SDS011;1938;50.812;7.738;2023-09-18T06:05:31;6.17;;;2.97;;
3845;SDS011;1938;50.812;7.738;2023-09-18T06:07:58;13.67;;;3.87;;
3845;SDS011;1938;50.812;7.738;2023-09-18T06:10:24;14.63;;;3.37;;
3845;SDS011;1938;50.812;7.738;2023-09-18T06:12:50;18.43;;;3.23;;
3845;SDS011;1938;50.812;7.738;2023-09-18T06:15:15;13.07;;;3.40;;
3845;SDS011;1938;50.812;7.738;2023-09-18T06:17:41;7.03;;;2.20;;
3845;SDS011;1938;50.812;7.738;2023-09-18T06:20:08;11.03;;;3.00;;
3845;SDS011;1938;50.812;7.738;2023-09-18T06:22:38;11.23;;;3.17;;
3845;SDS011;1938;50.812;7.738;2023-09-18T06:25:05;9.80;;;3.17;;
3845;SDS011;1938;50.812;7.738;2023-09-18T06:27:34;11.17;;;3.43;;
3845;SDS011;1938;50.812;7.738;2023-09-18T06:30:01;14.80;;;3.30;;
3845;SDS011;1938;50.812;7.738;2023-09-18T06:32:27;6.50;;;2.40;;
3845;SDS011;1938;50.812;7.738;2023-09-18T06:34:53;10.03;;;2.37;;
3845;SDS011;1938;50.812;7.738;2023-09-18T06:37:18;12.23;;;2.40;;
3845;SDS011;1938;50.812;7.738;2023-09-18T06:39:45;5.97;;;2.53;;
3845;SDS011;1938;50.812;7.738;2023-09-18T06:42:10;9.70;;;2.60;;
3845;SDS011;1938;50.812;7.738;2023-09-18T06:44:36;9.40;;;2.90;;
3845;SDS011;1938;50.812;7.738;2023-09-18T06:47:02;11.33;;;2.47;;
3845;SDS011;1938;50.812;7.738;2023-09-18T06:49:28;9.10;;;2.83;;
3845;SDS011;1938;50.812;7.738;2023-09-18T06:51:55;13.20;;;2.73;;
3845;SDS011;1938;50.812;7.738;2023-09-18T06:54:21;7.60;;;2.20;;
3845;SDS011;1938;50.812;7.738;2023-09-18T06:56:46;9.20;;;2.33;;
3845;SDS011;1938;50.812;7.738;2023-09-18T06:59:12;7.63;;;2.77;;
3845;SDS011;1938;50.812;7.738;2023-09-18T07:01:38;8.37;;;2.40;;
3845;SDS011;1938;50.812;7.738;2023-09-18T07:04:05;11.67;;;2.30;;
3845;SDS011;1938;50.812;7.738;2023-09-18T07:06:30;8.47;;;2.90;;
3845;SDS011;1938;50.812;7.738;2023-09-18T07:08:56;7.70;;;2.37;;
3845;SDS011;1938;50.812;7.738;2023-09-18T07:11:21;7.80;;;2.70;;
3845;SDS011;1938;50.812;7.738;2023-09-18T07:13:47;10.83;;;2.47;;
3845;SDS011;1938;50.812;7.738;2023-09-18T07:16:14;9.37;;;2.63;;
3845;SDS011;1938;50.812;7.738;2023-09-18T07:18:39;11.93;;;2.53;;
3845;SDS011;1938;50.812;7.738;2023-09-18T07:21:05;5.53;;;1.90;;
3845;SDS011;1938;50.812;7.738;2023-09-18T07:23:30;11.60;;;2.60;;
3845;SDS011;1938;50.812;7.738;2023-09-18T07:25:56;7.80;;;2.40;;
3845;SDS011;1938;50.812;7.738;2023-09-18T07:28:24;12.50;;;2.40;;
3845;SDS011;1938;50.812;7.738;2023-09-18T07:30:50;8.70;;;2.30;;
3845;SDS011;1938;50.812;7.738;2023-09-18T07:33:16;6.67;;;2.00;;
3845;SDS011;1938;50.812;7.738;2023-09-18T07:35:45;7.60;;;2.40;;
3845;SDS011;1938;50.812;7.738;2023-09-18T07:38:12;11.43;;;2.90;;
3845;SDS011;1938;50.812;7.738;2023-09-18T07:40:37;11.67;;;4.10;;
3845;SDS011;1938;50.812;7.738;2023-09-18T07:43:03;15.00;;;4.30;;
3845;SDS011;1938;50.812;7.738;2023-09-18T07:45:28;15.10;;;2.10;;
3845;SDS011;1938;50.812;7.738;2023-09-18T07:47:54;8.37;;;3.27;;
3845;SDS011;1938;50.812;7.738;2023-09-18T07:50:19;12.83;;;2.43;;
3845;SDS011;1938;50.812;7.738;2023-09-18T07:52:45;11.57;;;3.03;;
3845;SDS011;1938;50.812;7.738;2023-09-18T07:55:10;9.23;;;2.40;;
3845;SDS011;1938;50.812;7.738;2023-09-18T07:57:36;4.97;;;1.90;;
3845;SDS011;1938;50.812;7.738;2023-09-18T08:00:02;5.67;;;2.03;;
3845;SDS011;1938;50.812;7.738;2023-09-18T08:02:32;5.40;;;2.10;;
3845;SDS011;1938;50.812;7.738;2023-09-18T08:04:59;10.70;;;2.20;;
3845;SDS011;1938;50.812;7.738;2023-09-18T08:07:27;5.43;;;2.10;;
3845;SDS011;1938;50.812;7.738;2023-09-18T08:09:53;10.27;;;2.37;;
3845;SDS011;1938;50.812;7.738;2023-09-18T08:12:18;6.00;;;1.60;;
3845;SDS011;1938;50.812;7.738;2023-09-18T08:14:44;5.37;;;1.93;;
3845;SDS011;1938;50.812;7.738;2023-09-18T08:17:09;9.47;;;2.17;;
3845;SDS011;1938;50.812;7.738;2023-09-18T08:19:35;14.03;;;2.50;;
3845;SDS011;1938;50.812;7.738;2023-09-18T08:22:02;9.50;;;2.17;;
3845;SDS011;1938;50.812;7.738;2023-09-18T08:24:29;8.00;;;2.97;;
3845;SDS011;1938;50.812;7.738;2023-09-18T08:26:55;10.40;;;2.27;;
3845;SDS011;1938;50.812;7.738;2023-09-18T08:29:21;7.60;;;2.10;;
3845;SDS011;1938;50.812;7.738;2023-09-18T08:31:47;9.33;;;2.07;;
3845;SDS011;1938;50.812;7.738;2023-09-18T08:34:14;11.40;;;2.17;;
3845;SDS011;1938;50.812;7.738;2023-09-18T08:36:39;8.40;;;2.23;;
3845;SDS011;1938;50.812;7.738;2023-09-18T08:39:05;6.23;;;2.47;;
3845;SDS011;1938;50.812;7.738;2023-09-18T08:41:31;6.27;;;2.10;;
3845;SDS011;1938;50.812;7.738;2023-09-18T08:44:01;8.37;;;3.20;;
3845;SDS011;1938;50.812;7.738;2023-09-18T08:46:31;10.60;;;2.57;;
3845;SDS011;1938;50.812;7.738;2023-09-18T08:48:59;8.73;;;1.77;;
3845;SDS011;1938;50.812;7.738;2023-09-18T08:51:25;8.30;;;2.03;;
3845;SDS011;1938;50.812;7.738;2023-09-18T08:53:51;11.97;;;2.27;;
3845;SDS011;1938;50.812;7.738;2023-09-18T08:56:19;8.40;;;2.10;;
3845;SDS011;1938;50.812;7.738;2023-09-18T08:58:46;6.17;;;1.87;;
3845;SDS011;1938;50.812;7.738;2023-09-18T09:01:12;6.40;;;1.67;;
3845;SDS011;1938;50.812;7.738;2023-09-18T09:03:38;6.20;;;1.73;;
3845;SDS011;1938;50.812;7.738;2023-09-18T09:06:05;9.60;;;2.50;;
3845;SDS011;1938;50.812;7.738;2023-09-18T09:08:32;10.20;;;2.13;;
3845;SDS011;1938;50.812;7.738;2023-09-18T09:10:58;6.70;;;1.67;;
3845;SDS011;1938;50.812;7.738;2023-09-18T09:13:24;5.20;;;1.93;;
3845;SDS011;1938;50.812;7.738;2023-09-18T09:15:53;7.47;;;2.23;;
3845;SDS011;1938;50.812;7.738;2023-09-18T09:18:24;6.67;;;2.07;;
3845;SDS011;1938;50.812;7.738;2023-09-18T09:20:52;8.13;;;2.10;;
3845;SDS011;1938;50.812;7.738;2023-09-18T09:23:20;5.70;;;1.80;;
3845;SDS011;1938;50.812;7.738;2023-09-18T09:25:46;11.07;;;1.70;;
3845;SDS011;1938;50.812;7.738;2023-09-18T09:28:12;4.67;;;1.70;;
3845;SDS011;1938;50.812;7.738;2023-09-18T09:30:37;10.60;;;1.87;;
3845;SDS011;1938;50.812;7.738;2023-09-18T09:33:03;7.83;;;1.80;;
3845;SDS011;1938;50.812;7.738;2023-09-18T09:35:35;6.13;;;1.60;;
3845;SDS011;1938;50.812;7.738;2023-09-18T09:38:09;7.13;;;1.40;;
3845;SDS011;1938;50.812;7.738;2023-09-18T09:40:38;12.37;;;2.67;;
3845;SDS011;1938;50.812;7.738;2023-09-18T09:43:05;4.63;;;1.87;;
3845;SDS011;1938;50.812;7.738;2023-09-18T09:45:33;4.03;;;1.60;;
3845;SDS011;1938;50.812;7.738;2023-09-18T09:48:03;8.77;;;1.77;;
3845;SDS011;1938;50.812;7.738;2023-09-18T09:50:34;16.33;;;2.30;;
3845;SDS011;1938;50.812;7.738;2023-09-18T09:53:11;5.90;;;1.67;;
3845;SDS011;1938;50.812;7.738;2023-09-18T09:55:38;8.17;;;2.17;;
3845;SDS011;1938;50.812;7.738;2023-09-18T09:58:04;6.53;;;1.80;;
3845;SDS011;1938;50.812;7.738;2023-09-18T10:00:32;5.27;;;1.80;;
3845;SDS011;1938;50.812;7.738;2023-09-18T10:03:09;9.47;;;1.90;;
3845;SDS011;1938;50.812;7.738;2023-09-18T10:05:37;13.60;;;1.60;;
3845;SDS011;1938;50.812;7.738;2023-09-18T10:08:11;6.57;;;1.80;;
3845;SDS011;1938;50.812;7.738;2023-09-18T10:10:47;8.93;;;2.00;;
3845;SDS011;1938;50.812;7.738;2023-09-18T10:13:15;5.97;;;2.00;;
3845;SDS011;1938;50.812;7.738;2023-09-18T10:15:57;7.77;;;1.97;;
3845;SDS011;1938;50.812;7.738;2023-09-18T10:21:22;5.20;;;1.60;;
3845;SDS011;1938;50.812;7.738;2023-09-18T10:24:02;6.93;;;2.77;;
3845;SDS011;1938;50.812;7.738;2023-09-18T10:26:48;7.57;;;1.73;;
3845;SDS011;1938;50.812;7.738;2023-09-18T10:29:23;8.33;;;2.10;;
3845;SDS011;1938;50.812;7.738;2023-09-18T10:31:50;5.60;;;1.33;;
3845;SDS011;1938;50.812;7.738;2023-09-18T10:34:20;7.47;;;2.00;;
3845;SDS011;1938;50.812;7.738;2023-09-18T10:36:47;4.27;;;1.30;;
3845;SDS011;1938;50.812;7.738;2023-09-18T10:39:14;5.53;;;1.53;;
3845;SDS011;1938;50.812;7.738;2023-09-18T10:41:46;5.03;;;1.60;;
3845;SDS011;1938;50.812;7.738;2023-09-18T10:44:12;7.40;;;1.67;;
3845;SDS011;1938;50.812;7.738;2023-09-18T10:46:40;7.33;;;1.67;;
3845;SDS011;1938;50.812;7.738;2023-09-18T10:49:06;5.23;;;1.63;;
3845;SDS011;1938;50.812;7.738;2023-09-18T10:51:33;5.73;;;1.90;;
3845;SDS011;1938;50.812;7.738;2023-09-18T10:53:59;5.23;;;2.07;;
3845;SDS011;1938;50.812;7.738;2023-09-18T10:56:25;6.63;;;1.53;;
3845;SDS011;1938;50.812;7.738;2023-09-18T10:59:01;6.33;;;1.90;;
3845;SDS011;1938;50.812;7.738;2023-09-18T11:01:31;6.13;;;1.77;;
3845;SDS011;1938;50.812;7.738;2023-09-18T11:03:57;7.47;;;1.70;;
3845;SDS011;1938;50.812;7.738;2023-09-18T11:06:27;7.03;;;1.90;;
3845;SDS011;1938;50.812;7.738;2023-09-18T11:09:03;10.03;;;1.60;;
3845;SDS011;1938;50.812;7.738;2023-09-18T11:11:31;9.77;;;2.27;;
3845;SDS011;1938;50.812;7.738;2023-09-18T11:14:00;8.93;;;2.07;;
3845;SDS011;1938;50.812;7.738;2023-09-18T11:21:25;6.53;;;1.80;;
3845;SDS011;1938;50.812;7.738;2023-09-18T11:23:58;5.20;;;1.40;;
3845;SDS011;1938;50.812;7.738;2023-09-18T11:26:36;9.33;;;2.57;;
3845;SDS011;1938;50.812;7.738;2023-09-18T11:29:07;5.13;;;1.53;;
3845;SDS011;1938;50.812;7.738;2023-09-18T11:31:43;8.80;;;2.20;;
3845;SDS011;1938;50.812;7.738;2023-09-18T11:34:14;3.40;;;1.27;;
3845;SDS011;1938;50.812;7.738;2023-09-18T11:36:40;3.97;;;1.47;;
3845;SDS011;1938;50.812;7.738;2023-09-18T11:39:06;9.33;;;2.30;;
3845;SDS011;1938;50.812;7.738;2023-09-18T11:41:34;4.00;;;1.73;;
3845;SDS011;1938;50.812;7.738;2023-09-18T11:44:31;4.40;;;1.53;;
3845;SDS011;1938;50.812;7.738;2023-09-18T11:46:54;3.60;;;1.23;;
3845;SDS011;1938;50.812;7.738;2023-09-18T11:49:21;8.10;;;1.67;;
3845;SDS011;1938;50.812;7.738;2023-09-18T11:51:49;6.90;;;1.80;;
3845;SDS011;1938;50.812;7.738;2023-09-18T11:54:15;6.60;;;1.77;;
3845;SDS011;1938;50.812;7.738;2023-09-18T11:56:42;8.10;;;1.90;;
3845;SDS011;1938;50.812;7.738;2023-09-18T11:59:08;5.53;;;1.80;;
3845;SDS011;1938;50.812;7.738;2023-09-18T12:01:35;7.37;;;1.60;;
3845;SDS011;1938;50.812;7.738;2023-09-18T12:04:01;4.00;;;1.63;;
3845;SDS011;1938;50.812;7.738;2023-09-18T12:06:35;6.97;;;1.83;;
3845;SDS011;1938;50.812;7.738;2023-09-18T12:09:01;4.10;;;1.70;;
3845;SDS011;1938;50.812;7.738;2023-09-18T12:11:28;3.80;;;1.57;;
3845;SDS011;1938;50.812;7.738;2023-09-18T12:13:55;6.70;;;1.60;;
3845;SDS011;1938;50.812;7.738;2023-09-18T12:16:20;4.87;;;1.57;;
3845;SDS011;1938;50.812;7.738;2023-09-18T12:18:47;5.80;;;1.90;;
3845;SDS011;1938;50.812;7.738;2023-09-18T12:21:13;3.50;;;1.23;;
3845;SDS011;1938;50.812;7.738;2023-09-18T12:23:42;7.30;;;1.67;;
3845;SDS011;1938;50.812;7.738;2023-09-18T12:26:10;3.93;;;1.43;;
3845;SDS011;1938;50.812;7.738;2023-09-18T12:28:40;9.83;;;2.10;;
3845;SDS011;1938;50.812;7.738;2023-09-18T12:31:09;6.17;;;1.60;;
3845;SDS011;1938;50.812;7.738;2023-09-18T12:33:36;4.60;;;1.30;;
3845;SDS011;1938;50.812;7.738;2023-09-18T12:36:04;6.10;;;1.80;;
3845;SDS011;1938;50.812;7.738;2023-09-18T12:38:32;3.67;;;1.40;;
3845;SDS011;1938;50.812;7.738;2023-09-18T12:40:58;4.50;;;1.57;;
3845;SDS011;1938;50.812;7.738;2023-09-18T12:43:38;3.70;;;1.53;;
3845;SDS011;1938;50.812;7.738;2023-09-18T12:46:05;6.90;;;1.80;;
3845;SDS011;1938;50.812;7.738;2023-09-18T12:48:32;4.57;;;1.90;;
3845;SDS011;1938;50.812;7.738;2023-09-18T12:51:04;8.30;;;1.80;;
3845;SDS011;1938;50.812;7.738;2023-09-18T12:53:30;5.47;;;1.73;;
3845;SDS011;1938;50.812;7.738;2023-09-18T12:58:38;6.33;;;2.00;;
3845;SDS011;1938;50.812;7.738;2023-09-18T13:01:07;4.63;;;1.67;;
3845;SDS011;1938;50.812;7.738;2023-09-18T13:03:44;7.70;;;1.57;;
3845;SDS011;1938;50.812;7.738;2023-09-18T13:06:20;3.30;;;1.10;;
3845;SDS011;1938;50.812;7.738;2023-09-18T13:08:46;7.50;;;1.70;;
3845;SDS011;1938;50.812;7.738;2023-09-18T13:11:12;7.00;;;1.67;;
3845;SDS011;1938;50.812;7.738;2023-09-18T13:13:39;4.50;;;1.97;;
3845;SDS011;1938;50.812;7.738;2023-09-18T13:16:06;6.30;;;1.80;;
3845;SDS011;1938;50.812;7.738;2023-09-18T13:18:37;7.27;;;1.70;;
3845;SDS011;1938;50.812;7.738;2023-09-18T13:21:10;4.80;;;2.00;;
3845;SDS011;1938;50.812;7.738;2023-09-18T13:23:36;6.77;;;2.03;;
3845;SDS011;1938;50.812;7.738;2023-09-18T13:26:03;4.23;;;2.00;;
3845;SDS011;1938;50.812;7.738;2023-09-18T13:28:29;4.00;;;1.53;;
3845;SDS011;1938;50.812;7.738;2023-09-18T13:30:59;3.30;;;1.70;;
3845;SDS011;1938;50.812;7.738;2023-09-18T13:33:26;3.70;;;1.40;;
3845;SDS011;1938;50.812;7.738;2023-09-18T13:35:52;6.50;;;1.60;;
3845;SDS011;1938;50.812;7.738;2023-09-18T13:38:18;9.60;;;2.03;;
3845;SDS011;1938;50.812;7.738;2023-09-18T13:40:45;4.60;;;1.53;;
3845;SDS011;1938;50.812;7.738;2023-09-18T13:43:12;4.13;;;2.07;;
3845;SDS011;1938;50.812;7.738;2023-09-18T13:45:40;8.13;;;1.77;;
3845;SDS011;1938;50.812;7.738;2023-09-18T13:48:07;5.90;;;1.43;;
3845;SDS011;1938;50.812;7.738;2023-09-18T13:50:33;10.50;;;1.57;;
3845;SDS011;1938;50.812;7.738;2023-09-18T13:53:00;7.40;;;1.80;;
3845;SDS011;1938;50.812;7.738;2023-09-18T13:55:26;3.50;;;1.80;;
3845;SDS011;1938;50.812;7.738;2023-09-18T13:57:51;6.77;;;1.90;;
3845;SDS011;1938;50.812;7.738;2023-09-18T14:00:17;7.40;;;2.33;;
3845;SDS011;1938;50.812;7.738;2023-09-18T14:02:43;4.20;;;1.60;;
3845;SDS011;1938;50.812;7.738;2023-09-18T14:05:08;10.60;;;1.90;;
3845;SDS011;1938;50.812;7.738;2023-09-18T14:07:35;4.10;;;1.80;;
3845;SDS011;1938;50.812;7.738;2023-09-18T14:10:03;5.17;;;1.23;;
3845;SDS011;1938;50.812;7.738;2023-09-18T14:12:32;3.67;;;1.60;;
3845;SDS011;1938;50.812;7.738;2023-09-18T14:14:57;4.83;;;1.80;;
3845;SDS011;1938;50.812;7.738;2023-09-18T14:17:23;5.73;;;1.90;;
3845;SDS011;1938;50.812;7.738;2023-09-18T14:19:48;14.13;;;1.87;;
3845;SDS011;1938;50.812;7.738;2023-09-18T14:22:14;5.30;;;1.33;;
3845;SDS011;1938;50.812;7.738;2023-09-18T14:24:40;4.53;;;2.03;;
3845;SDS011;1938;50.812;7.738;2023-09-18T14:27:06;6.90;;;1.60;;
3845;SDS011;1938;50.812;7.738;2023-09-18T14:29:32;3.83;;;1.50;;
3845;SDS011;1938;50.812;7.738;2023-09-18T14:31:58;5.00;;;2.10;;
3845;SDS011;1938;50.812;7.738;2023-09-18T14:34:24;3.77;;;1.90;;
3845;SDS011;1938;50.812;7.738;2023-09-18T14:36:50;4.90;;;1.60;;
3845;SDS011;1938;50.812;7.738;2023-09-18T14:39:16;5.53;;;1.77;;
3845;SDS011;1938;50.812;7.738;2023-09-18T14:41:41;5.83;;;1.50;;
3845;SDS011;1938;50.812;7.738;2023-09-18T14:44:08;6.70;;;1.80;;
3845;SDS011;1938;50.812;7.738;2023-09-18T14:46:34;5.57;;;1.90;;
3845;SDS011;1938;50.812;7.738;2023-09-18T14:49:02;5.07;;;1.60;;
3845;SDS011;1938;50.812;7.738;2023-09-18T14:51:28;6.37;;;1.53;;
3845;SDS011;1938;50.812;7.738;2023-09-18T14:53:57;5.67;;;1.63;;
3845;SDS011;1938;50.812;7.738;2023-09-18T14:56:23;4.37;;;1.83;;
3845;SDS011;1938;50.812;7.738;2023-09-18T14:58:49;4.10;;;1.70;;
3845;SDS011;1938;50.812;7.738;2023-09-18T15:01:16;7.30;;;1.97;;
3845;SDS011;1938;50.812;7.738;2023-09-18T15:03:42;3.20;;;1.30;;
3845;SDS011;1938;50.812;7.738;2023-09-18T15:06:09;3.43;;;1.40;;
3845;SDS011;1938;50.812;7.738;2023-09-18T15:08:35;6.73;;;1.83;;
3845;SDS011;1938;50.812;7.738;2023-09-18T15:11:01;6.23;;;1.77;;
3845;SDS011;1938;50.812;7.738;2023-09-18T15:13:27;4.97;;;2.10;;
3845;SDS011;1938;50.812;7.738;2023-09-18T15:15:53;3.97;;;1.70;;
3845;SDS011;1938;50.812;7.738;2023-09-18T15:18:18;4.13;;;1.30;;
3845;SDS011;1938;50.812;7.738;2023-09-18T15:20:45;4.70;;;2.17;;
3845;SDS011;1938;50.812;7.738;2023-09-18T15:23:10;3.50;;;1.70;;